Time;durP1;ratioP1;P1;durP2;ratioP2;P2;SDS_P1;SDS_P2;PMS_P1;PMS_P2;Temp;Humidity;BMP_temperature;BMP_pressure;BME280_temperature;BME280_humidity;BME280_pressure;Samples;Min_cycle;Max_cycle;Signal;HPM_P1;HPM_P2
2022/01/05 00:00:11;;;;;;;14.73;10.43;;;;;;;;;;143739;573;46023;-58
2022/01/05 00:02:39;;;;;;;12.45;8.25;;;;;;;;;;143742;569;46018;-58
2022/01/05 00:05:07;;;;;;;10.82;7.97;;;;;;;;;;143742;570;46022;-57
2022/01/05 00:07:35;;;;;;;13.73;8.75;;;;;;;;;;143739;566;46020;-58
2022/01/05 00:10:02;;;;;;;10.52;7.18;;;;;;;;;;143742;564;46020;-58
2022/01/05 00:12:29;;;;;;;13.82;9.25;;;;;;;;;;143743;622;46020;-58
2022/01/05 00:14:56;;;;;;;12.40;9.48;;;;;;;;;;143742;569;46051;-58
2022/01/05 00:17:24;;;;;;;12.10;8.85;;;;;;;;;;143738;565;46020;-57
2022/01/05 00:19:51;;;;;;;11.77;8.95;;;;;;;;;;143739;660;46020;-57
2022/01/05 00:22:18;;;;;;;11.20;8.98;;;;;;;;;;143741;565;46021;-58
2022/01/05 00:24:46;;;;;;;13.98;8.38;;;;;;;;;;143741;594;46022;-58
2022/01/05 00:27:13;;;;;;;12.48;9.05;;;;;;;;;;143739;614;46021;-58
2022/01/05 00:29:40;;;;;;;12.10;8.68;;;;;;;;;;143741;569;46021;-58
2022/01/05 00:32:08;;;;;;;12.68;8.60;;;;;;;;;;143742;626;46020;-57
2022/01/05 00:34:36;;;;;;;10.90;8.75;;;;;;;;;;143741;594;46050;-58
2022/01/05 00:37:03;;;;;;;14.68;8.60;;;;;;;;;;143737;607;47012;-59
2022/01/05 00:39:31;;;;;;;12.43;7.80;;;;;;;;;;143738;604;46020;-58
2022/01/05 00:41:58;;;;;;;10.25;7.45;;;;;;;;;;143743;652;46020;-58
2022/01/05 00:44:25;;;;;;;11.65;8.48;;;;;;;;;;143741;565;46023;-57
2022/01/05 00:46:52;;;;;;;10.98;8.20;;;;;;;;;;143739;577;46020;-57
2022/01/05 00:49:19;;;;;;;10.25;7.72;;;;;;;;;;143740;656;46020;-58
2022/01/05 00:51:46;;;;;;;9.38;7.10;;;;;;;;;;143741;575;46021;-58
2022/01/05 00:54:14;;;;;;;10.00;7.57;;;;;;;;;;143742;596;46022;-58
2022/01/05 00:56:41;;;;;;;11.70;8.13;;;;;;;;;;143739;589;46021;-59
2022/01/05 00:59:08;;;;;;;10.80;7.75;;;;;;;;;;143740;600;46021;-58
2022/01/05 01:01:36;;;;;;;10.23;7.37;;;;;;;;;;143744;564;46020;-58
2022/01/05 01:04:04;;;;;;;12.45;8.10;;;;;;;;;;143740;566;47021;-58
2022/01/05 01:06:31;;;;;;;9.25;7.32;;;;;;;;;;143741;582;46020;-58
2022/01/05 01:08:58;;;;;;;10.48;7.78;;;;;;;;;;143740;625;46020;-58
2022/01/05 01:11:26;;;;;;;10.57;7.50;;;;;;;;;;143743;571;46020;-57
2022/01/05 01:13:53;;;;;;;10.32;7.68;;;;;;;;;;143741;585;46023;-58
2022/01/05 01:16:20;;;;;;;9.23;6.87;;;;;;;;;;143740;621;46020;-59
2022/01/05 01:18:47;;;;;;;10.68;8.45;;;;;;;;;;143740;565;46020;-58
2022/01/05 01:21:15;;;;;;;11.63;8.20;;;;;;;;;;143740;587;46021;-58
2022/01/05 01:23:53;;;;;;;14.35;9.07;;;;;;;;;;143742;576;46022;-59
2022/01/05 01:26:20;;;;;;;10.32;7.68;;;;;;;;;;143727;579;46020;-58
2022/01/05 01:28:47;;;;;;;10.82;7.30;;;;;;;;;;143737;576;46021;-58
2022/01/05 01:31:14;;;;;;;9.70;7.82;;;;;;;;;;143745;574;46020;-58
2022/01/05 01:33:41;;;;;;;10.68;8.27;;;;;;;;;;143741;569;46022;-58
2022/01/05 01:36:08;;;;;;;10.27;8.23;;;;;;;;;;143739;633;46021;-58
2022/01/05 01:38:35;;;;;;;8.32;7.43;;;;;;;;;;143740;564;46020;-57
2022/01/05 01:41:02;;;;;;;11.82;8.68;;;;;;;;;;143743;617;46020;-58
2022/01/05 01:43:29;;;;;;;12.05;8.68;;;;;;;;;;143738;588;46023;-57
2022/01/05 01:45:56;;;;;;;11.90;9.23;;;;;;;;;;143740;610;46012;-57
2022/01/05 01:48:23;;;;;;;10.57;7.82;;;;;;;;;;143740;585;46020;-58
2022/01/05 01:50:50;;;;;;;9.90;7.35;;;;;;;;;;143743;593;46021;-58
2022/01/05 01:53:17;;;;;;;9.48;7.18;;;;;;;;;;143738;619;47022;-58
2022/01/05 01:55:44;;;;;;;13.02;9.70;;;;;;;;;;143739;597;46021;-58
2022/01/05 01:58:11;;;;;;;11.32;8.77;;;;;;;;;;143741;650;46021;-57
2022/01/05 02:00:38;;;;;;;12.63;9.25;;;;;;;;;;143742;587;46020;-58
2022/01/05 02:03:05;;;;;;;14.43;9.88;;;;;;;;;;143737;585;47022;-58
2022/01/05 02:05:32;;;;;;;13.70;9.77;;;;;;;;;;143740;621;46013;-59
2022/01/05 02:08:01;;;;;;;10.65;8.30;;;;;;;;;;143740;573;46020;-58
2022/01/05 02:10:29;;;;;;;11.73;8.95;;;;;;;;;;143740;626;46020;-58
2022/01/05 02:12:56;;;;;;;17.08;8.40;;;;;;;;;;143742;609;46052;-58
2022/01/05 02:15:23;;;;;;;11.60;8.30;;;;;;;;;;143739;611;46020;-57
2022/01/05 02:18:10;;;;;;;11.93;8.60;;;;;;;;;;143741;566;46020;-58
2022/01/05 02:20:37;;;;;;;9.63;7.68;;;;;;;;;;143731;572;46021;-58
2022/01/05 02:23:05;;;;;;;10.85;8.82;;;;;;;;;;143742;569;47020;-58
2022/01/05 02:25:32;;;;;;;12.63;9.35;;;;;;;;;;143740;586;46020;-58
2022/01/05 02:27:59;;;;;;;10.15;8.38;;;;;;;;;;143735;621;46021;-58
2022/01/05 02:30:29;;;;;;;11.38;8.25;;;;;;;;;;143742;566;46020;-58
2022/01/05 02:32:57;;;;;;;9.95;7.72;;;;;;;;;;143741;631;46022;-58
2022/01/05 02:35:25;;;;;;;10.50;7.85;;;;;;;;;;143740;620;46012;-57
2022/01/05 02:37:54;;;;;;;10.98;7.55;;;;;;;;;;143740;588;46020;-58
2022/01/05 02:40:22;;;;;;;15.15;9.15;;;;;;;;;;143738;592;46021;-58
2022/01/05 02:42:52;;;;;;;14.55;9.13;;;;;;;;;;143743;574;46023;-58
2022/01/05 02:45:19;;;;;;;10.68;8.70;;;;;;;;;;143741;660;46020;-58
2022/01/05 02:47:46;;;;;;;11.30;8.15;;;;;;;;;;143741;612;46020;-57
2022/01/05 02:50:13;;;;;;;12.48;8.48;;;;;;;;;;143741;575;46021;-57
2022/01/05 02:52:41;;;;;;;14.70;8.90;;;;;;;;;;143742;587;46022;-56
2022/01/05 02:55:09;;;;;;;18.73;9.98;;;;;;;;;;143739;618;46021;-58
2022/01/05 02:57:36;;;;;;;12.15;9.60;;;;;;;;;;143738;576;46021;-58
2022/01/05 03:00:09;;;;;;;11.12;9.18;;;;;;;;;;143741;565;46020;-56
2022/01/05 03:02:36;;;;;;;12.63;9.90;;;;;;;;;;143740;567;46022;-58
2022/01/05 03:05:04;;;;;;;12.30;8.02;;;;;;;;;;143740;565;46021;-57
2022/01/05 03:07:34;;;;;;;13.07;7.93;;;;;;;;;;143739;570;46020;-57
2022/01/05 03:10:01;;;;;;;12.35;9.93;;;;;;;;;;143743;564;46020;-57
2022/01/05 03:12:28;;;;;;;11.60;9.45;;;;;;;;;;143742;572;46023;-57
2022/01/05 03:14:55;;;;;;;10.63;7.97;;;;;;;;;;143742;600;46012;-58
2022/01/05 03:17:22;;;;;;;10.45;8.20;;;;;;;;;;143739;569;46045;-56
2022/01/05 03:19:49;;;;;;;11.52;9.50;;;;;;;;;;143743;612;46021;-57
2022/01/05 03:22:16;;;;;;;13.25;9.98;;;;;;;;;;143741;602;47020;-57
2022/01/05 03:24:43;;;;;;;13.02;10.32;;;;;;;;;;143742;589;46013;-57
2022/01/05 03:27:10;;;;;;;10.52;7.50;;;;;;;;;;143738;581;46028;-57
2022/01/05 03:29:37;;;;;;;13.55;10.10;;;;;;;;;;143741;579;46020;-58
2022/01/05 03:32:05;;;;;;;10.70;7.68;;;;;;;;;;143741;655;46022;-57
2022/01/05 03:34:32;;;;;;;11.75;8.45;;;;;;;;;;143741;589;46021;-56
2022/01/05 03:37:00;;;;;;;12.82;9.57;;;;;;;;;;143735;565;46020;-56
2022/01/05 03:39:27;;;;;;;14.32;9.90;;;;;;;;;;143745;581;46020;-56
2022/01/05 03:41:54;;;;;;;15.40;9.77;;;;;;;;;;143740;655;47023;-57
2022/01/05 03:44:22;;;;;;;18.58;12.82;;;;;;;;;;143741;613;46020;-57
2022/01/05 03:46:51;;;;;;;23.00;14.60;;;;;;;;;;143739;603;46020;-58
2022/01/05 03:49:18;;;;;;;20.45;13.77;;;;;;;;;;143743;592;46021;-58
2022/01/05 03:51:45;;;;;;;13.13;9.05;;;;;;;;;;143739;600;46052;-58
2022/01/05 03:54:13;;;;;;;17.12;10.52;;;;;;;;;;143741;613;46020;-57
2022/01/05 03:56:39;;;;;;;13.40;8.77;;;;;;;;;;143740;604;46021;-58
2022/01/05 03:59:06;;;;;;;11.98;9.20;;;;;;;;;;143744;650;46020;-57
2022/01/05 04:01:34;;;;;;;17.98;11.57;;;;;;;;;;143741;625;46022;-57
2022/01/05 04:04:01;;;;;;;14.40;10.02;;;;;;;;;;143740;606;46916;-58
2022/01/05 04:06:28;;;;;;;11.55;9.13;;;;;;;;;;143739;578;46046;-63
2022/01/05 04:08:55;;;;;;;15.38;9.85;;;;;;;;;;143741;589;46020;-63
2022/01/05 04:11:22;;;;;;;11.18;8.40;;;;;;;;;;143740;653;46023;-62
2022/01/05 04:13:49;;;;;;;11.85;8.77;;;;;;;;;;143741;595;46020;-63
2022/01/05 04:16:16;;;;;;;12.57;9.48;;;;;;;;;;143740;588;46020;-63
2022/01/05 04:18:43;;;;;;;12.70;8.35;;;;;;;;;;143744;585;46021;-63
2022/01/05 04:21:10;;;;;;;16.00;8.98;;;;;;;;;;143740;590;47022;-63
2022/01/05 04:23:37;;;;;;;14.23;9.02;;;;;;;;;;143740;569;46020;-63
2022/01/05 04:26:04;;;;;;;15.85;9.63;;;;;;;;;;143741;684;46021;-63
2022/01/05 04:28:31;;;;;;;16.95;11.43;;;;;;;;;;143742;658;46020;-63
2022/01/05 04:30:58;;;;;;;16.12;11.82;;;;;;;;;;143739;601;47022;-63
2022/01/05 04:33:25;;;;;;;11.48;8.90;;;;;;;;;;143741;569;46021;-64
2022/01/05 04:35:52;;;;;;;14.43;9.43;;;;;;;;;;143740;662;46910;-63
2022/01/05 04:38:19;;;;;;;13.68;10.15;;;;;;;;;;143741;614;46020;-63
2022/01/05 04:40:46;;;;;;;11.75;9.30;;;;;;;;;;143740;612;47022;-63
2022/01/05 04:43:13;;;;;;;15.00;10.90;;;;;;;;;;143740;616;46020;-63
2022/01/05 04:45:40;;;;;;;14.93;10.23;;;;;;;;;;143740;593;46020;-63
2022/01/05 04:48:07;;;;;;;20.92;11.38;;;;;;;;;;143744;599;46021;-63
2022/01/05 04:50:34;;;;;;;12.63;9.38;;;;;;;;;;143742;596;46022;-62
2022/01/05 04:53:02;;;;;;;11.80;8.95;;;;;;;;;;143741;653;46020;-63
2022/01/05 04:55:29;;;;;;;12.98;8.65;;;;;;;;;;143741;566;46020;-63
2022/01/05 04:57:56;;;;;;;12.65;9.02;;;;;;;;;;143742;615;46020;-63
2022/01/05 05:00:23;;;;;;;12.43;8.70;;;;;;;;;;143742;631;46022;-63
2022/01/05 05:02:50;;;;;;;15.30;10.43;;;;;;;;;;143741;609;46021;-63
2022/01/05 05:05:17;;;;;;;21.83;11.85;;;;;;;;;;143742;576;46020;-63
2022/01/05 05:07:44;;;;;;;21.98;11.20;;;;;;;;;;143744;604;46020;-63
2022/01/05 05:10:11;;;;;;;21.33;14.18;;;;;;;;;;143740;566;47022;-63
2022/01/05 05:12:38;;;;;;;27.45;12.88;;;;;;;;;;143739;581;46020;-63
2022/01/05 05:15:05;;;;;;;22.75;13.38;;;;;;;;;;143741;587;46020;-63
2022/01/05 05:17:32;;;;;;;16.87;11.90;;;;;;;;;;143741;578;46021;-62
2022/01/05 05:19:59;;;;;;;19.25;12.15;;;;;;;;;;143744;583;46023;-62
2022/01/05 05:22:26;;;;;;;26.60;14.63;;;;;;;;;;143741;566;46020;-63
2022/01/05 05:24:53;;;;;;;18.33;12.57;;;;;;;;;;143739;675;46021;-63
2022/01/05 05:27:20;;;;;;;19.95;11.98;;;;;;;;;;143741;600;46020;-64
2022/01/05 05:29:47;;;;;;;13.15;10.02;;;;;;;;;;143743;617;46022;-63
2022/01/05 05:32:15;;;;;;;20.55;11.95;;;;;;;;;;143742;564;46020;-63
2022/01/05 05:34:42;;;;;;;18.60;12.07;;;;;;;;;;143742;631;46020;-63
2022/01/05 05:37:09;;;;;;;22.65;13.77;;;;;;;;;;143743;584;46020;-63
2022/01/05 05:39:36;;;;;;;16.70;12.23;;;;;;;;;;143742;586;47022;-64
2022/01/05 05:42:03;;;;;;;16.80;10.95;;;;;;;;;;143742;664;46020;-63
2022/01/05 05:44:30;;;;;;;21.33;12.35;;;;;;;;;;143741;593;46020;-63
2022/01/05 05:46:57;;;;;;;20.88;13.15;;;;;;;;;;143745;632;47020;-62
2022/01/05 05:49:25;;;;;;;17.65;13.00;;;;;;;;;;143742;583;46023;-63
2022/01/05 05:51:51;;;;;;;25.35;12.85;;;;;;;;;;143742;565;46020;-63
2022/01/05 05:54:19;;;;;;;21.77;12.95;;;;;;;;;;143740;604;46020;-62
2022/01/05 05:56:46;;;;;;;25.35;13.30;;;;;;;;;;143745;570;46021;-63
2022/01/05 05:59:13;;;;;;;24.98;12.55;;;;;;;;;;143743;594;46022;-62
2022/01/05 06:01:40;;;;;;;22.33;14.02;;;;;;;;;;143742;616;46010;-63
2022/01/05 06:04:07;;;;;;;21.42;14.10;;;;;;;;;;143742;576;46021;-64
2022/01/05 06:06:34;;;;;;;22.15;13.77;;;;;;;;;;143745;581;46020;-63
2022/01/05 06:09:01;;;;;;;20.10;15.02;;;;;;;;;;143740;580;47021;-63
2022/01/05 06:11:28;;;;;;;22.98;14.80;;;;;;;;;;143742;564;46021;-62
2022/01/05 06:13:55;;;;;;;22.15;15.02;;;;;;;;;;143742;664;46020;-62
2022/01/05 06:16:22;;;;;;;17.95;13.02;;;;;;;;;;143743;616;46020;-63
2022/01/05 06:18:49;;;;;;;21.33;13.02;;;;;;;;;;143741;612;46023;-63
2022/01/05 06:21:16;;;;;;;17.55;11.93;;;;;;;;;;143740;566;47010;-62
2022/01/05 06:23:43;;;;;;;19.70;13.10;;;;;;;;;;143742;658;46020;-62
2022/01/05 06:26:10;;;;;;;20.48;14.48;;;;;;;;;;143745;581;46021;-62
2022/01/05 06:28:37;;;;;;;29.02;22.20;;;;;;;;;;143743;586;46022;-62
2022/01/05 06:31:04;;;;;;;27.48;19.73;;;;;;;;;;143741;656;46915;-62
2022/01/05 06:33:31;;;;;;;22.20;16.17;;;;;;;;;;143740;621;46021;-62
2022/01/05 06:35:58;;;;;;;29.67;18.95;;;;;;;;;;143744;569;46020;-62
2022/01/05 06:38:25;;;;;;;25.30;16.45;;;;;;;;;;143743;566;46022;-62
2022/01/05 06:40:52;;;;;;;15.75;11.73;;;;;;;;;;143742;579;46011;-62
2022/01/05 06:43:19;;;;;;;22.10;13.10;;;;;;;;;;143743;607;46020;-62
2022/01/05 06:45:46;;;;;;;19.92;15.15;;;;;;;;;;143743;617;46020;-62
2022/01/05 06:48:13;;;;;;;25.73;14.93;;;;;;;;;;143740;569;47023;-62
2022/01/05 06:50:40;;;;;;;23.60;15.48;;;;;;;;;;143742;588;46020;-63
2022/01/05 06:53:07;;;;;;;17.40;11.32;;;;;;;;;;143741;573;46020;-62
2022/01/05 06:55:34;;;;;;;21.83;13.57;;;;;;;;;;143745;600;46021;-62
2022/01/05 06:58:02;;;;;;;21.48;13.70;;;;;;;;;;143741;577;47022;-62
2022/01/05 07:00:31;;;;;;;28.38;15.98;;;;;;;;;;143737;623;46021;-62
2022/01/05 07:02:58;;;;;;;31.83;17.17;;;;;;;;;;143743;575;46021;-62
2022/01/05 07:05:25;;;;;;;39.53;19.00;;;;;;;;;;143743;570;46020;-63
2022/01/05 07:07:52;;;;;;;39.00;21.75;;;;;;;;;;143740;579;46052;-63
2022/01/05 07:10:19;;;;;;;45.38;22.02;;;;;;;;;;143742;585;46010;-62
2022/01/05 07:12:46;;;;;;;44.47;24.85;;;;;;;;;;143741;576;46020;-63
2022/01/05 07:15:14;;;;;;;51.85;24.30;;;;;;;;;;143744;573;46020;-62
2022/01/05 07:17:42;;;;;;;41.92;23.58;;;;;;;;;;143743;643;46022;-64
2022/01/05 07:20:09;;;;;;;36.38;19.48;;;;;;;;;;143741;624;46020;-64
2022/01/05 07:22:37;;;;;;;44.97;23.35;;;;;;;;;;143740;605;46020;-64
2022/01/05 07:25:05;;;;;;;41.92;23.45;;;;;;;;;;143743;610;47020;-64
2022/01/05 07:27:32;;;;;;;44.55;24.27;;;;;;;;;;143742;655;46022;-65
2022/01/05 07:29:59;;;;;;;37.22;23.12;;;;;;;;;;143741;638;46020;-65
2022/01/05 07:32:28;;;;;;;47.42;23.73;;;;;;;;;;143740;629;46021;-64
2022/01/05 07:34:55;;;;;;;42.05;20.67;;;;;;;;;;143744;624;46020;-65
2022/01/05 07:37:23;;;;;;;39.08;20.17;;;;;;;;;;143743;576;46022;-64
2022/01/05 07:39:50;;;;;;;34.17;20.30;;;;;;;;;;143742;569;46021;-64
2022/01/05 07:42:17;;;;;;;51.15;22.50;;;;;;;;;;143742;569;46020;-63
2022/01/05 07:44:44;;;;;;;41.53;23.67;;;;;;;;;;143744;573;46020;-64
2022/01/05 07:47:11;;;;;;;45.10;22.90;;;;;;;;;;143742;572;46023;-65
2022/01/05 07:49:39;;;;;;;38.17;21.05;;;;;;;;;;143742;600;46020;-65
2022/01/05 07:52:06;;;;;;;41.50;22.45;;;;;;;;;;143743;569;46020;-64
2022/01/05 07:54:34;;;;;;;37.90;20.98;;;;;;;;;;143743;584;46020;-64
2022/01/05 07:57:01;;;;;;;41.47;20.23;;;;;;;;;;143745;565;46022;-66
2022/01/05 07:59:28;;;;;;;35.40;17.33;;;;;;;;;;143742;570;46020;-65
2022/01/05 08:01:55;;;;;;;34.60;19.48;;;;;;;;;;143740;586;46021;-65
2022/01/05 08:04:22;;;;;;;29.70;19.35;;;;;;;;;;143746;585;46020;-65
2022/01/05 08:06:49;;;;;;;34.92;18.77;;;;;;;;;;143741;569;47022;-65
2022/01/05 08:09:17;;;;;;;34.67;17.52;;;;;;;;;;143741;590;46021;-65
2022/01/05 08:11:44;;;;;;;45.30;19.95;;;;;;;;;;143742;573;46020;-65
2022/01/05 08:14:11;;;;;;;42.10;21.12;;;;;;;;;;143744;615;46020;-64
2022/01/05 08:16:38;;;;;;;30.70;16.65;;;;;;;;;;143742;578;47022;-65
2022/01/05 08:19:05;;;;;;;28.65;16.98;;;;;;;;;;143743;735;46010;-64
2022/01/05 08:21:32;;;;;;;29.80;17.17;;;;;;;;;;143742;615;46020;-63
2022/01/05 08:23:59;;;;;;;20.45;14.23;;;;;;;;;;143743;584;46020;-64
2022/01/05 08:26:26;;;;;;;25.55;14.40;;;;;;;;;;143742;619;46023;-64
2022/01/05 08:28:54;;;;;;;28.15;14.57;;;;;;;;;;143742;616;46020;-64
2022/01/05 08:31:20;;;;;;;28.20;18.77;;;;;;;;;;143744;630;46020;-64
2022/01/05 08:33:47;;;;;;;31.67;16.52;;;;;;;;;;143742;569;46020;-63
2022/01/05 08:36:15;;;;;;;40.22;21.10;;;;;;;;;;143742;612;46022;-63
2022/01/05 08:38:42;;;;;;;36.08;21.17;;;;;;;;;;143743;618;46011;-63
2022/01/05 08:41:08;;;;;;;41.53;24.02;;;;;;;;;;143741;609;46020;-63
2022/01/05 08:43:35;;;;;;;42.95;24.23;;;;;;;;;;143743;569;46020;-63
2022/01/05 08:46:03;;;;;;;33.38;20.20;;;;;;;;;;143745;639;46022;-64
2022/01/05 08:48:30;;;;;;;35.00;22.15;;;;;;;;;;143742;576;46010;-64
2022/01/05 08:50:58;;;;;;;37.90;21.12;;;;;;;;;;143740;604;46020;-64
2022/01/05 08:53:24;;;;;;;44.20;26.55;;;;;;;;;;143743;605;46020;-63
2022/01/05 08:55:52;;;;;;;38.88;22.52;;;;;;;;;;143743;579;46041;-64
2022/01/05 08:58:20;;;;;;;41.00;23.77;;;;;;;;;;143742;579;46020;-64
2022/01/05 09:00:48;;;;;;;48.65;27.77;;;;;;;;;;143742;583;46020;-64
2022/01/05 09:03:16;;;;;;;46.22;25.73;;;;;;;;;;143745;567;46021;-65
2022/01/05 09:05:43;;;;;;;47.65;25.27;;;;;;;;;;143741;578;46020;-65
2022/01/05 09:08:11;;;;;;;38.00;23.55;;;;;;;;;;143742;607;46021;-63
2022/01/05 09:10:39;;;;;;;37.35;21.70;;;;;;;;;;143740;569;46021;-64
2022/01/05 09:13:09;;;;;;;40.80;21.52;;;;;;;;;;143743;589;46020;-64
2022/01/05 09:15:36;;;;;;;34.25;22.33;;;;;;;;;;143745;574;46022;-64
2022/01/05 09:18:03;;;;;;;32.35;24.40;;;;;;;;;;143742;634;46020;-64
2022/01/05 09:20:31;;;;;;;35.30;23.48;;;;;;;;;;143740;566;46038;-64
2022/01/05 09:22:58;;;;;;;27.98;20.52;;;;;;;;;;143743;647;46020;-64
2022/01/05 09:25:25;;;;;;;28.08;20.35;;;;;;;;;;143742;645;47023;-63
2022/01/05 09:27:53;;;;;;;34.88;19.90;;;;;;;;;;143742;576;46020;-64
2022/01/05 09:30:22;;;;;;;29.87;17.50;;;;;;;;;;143742;636;46020;-64
2022/01/05 09:32:49;;;;;;;27.10;18.50;;;;;;;;;;143741;585;46021;-63
2022/01/05 09:35:19;;;;;;;24.58;17.87;;;;;;;;;;143740;569;46022;-64
2022/01/05 09:43:24;;;;;;;28.38;15.75;;;;;;;;;;143744;573;46020;-63
2022/01/05 09:46:19;;;;;;;25.85;16.40;;;;;;;;;;143738;613;47021;-63
2022/01/05 09:49:11;;;;;;;31.15;17.52;;;;;;;;;;143740;598;46020;-64
2022/01/05 09:51:43;;;;;;;24.73;16.52;;;;;;;;;;143739;625;47013;-64
2022/01/05 09:54:14;;;;;;;33.35;20.48;;;;;;;;;;143741;592;46021;-64
2022/01/05 09:56:41;;;;;;;22.85;15.05;;;;;;;;;;143738;575;47022;-63
2022/01/05 09:59:08;;;;;;;32.47;17.98;;;;;;;;;;143740;564;46020;-64
2022/01/05 10:01:37;;;;;;;31.67;16.98;;;;;;;;;;143740;626;46021;-64
2022/01/05 10:04:04;;;;;;;21.30;16.00;;;;;;;;;;143743;577;46020;-64
2022/01/05 10:06:34;;;;;;;33.03;17.00;;;;;;;;;;143743;581;46022;-64
2022/01/05 10:09:01;;;;;;;24.42;15.75;;;;;;;;;;143745;599;46010;-64
2022/01/05 10:11:29;;;;;;;30.70;15.07;;;;;;;;;;143740;584;46020;-64
2022/01/05 10:13:56;;;;;;;19.45;13.00;;;;;;;;;;143741;593;46020;-65
2022/01/05 10:16:24;;;;;;;24.05;14.13;;;;;;;;;;143741;599;46042;-64
2022/01/05 10:18:51;;;;;;;21.60;12.60;;;;;;;;;;143740;576;46020;-64
2022/01/05 10:21:18;;;;;;;22.37;12.30;;;;;;;;;;143740;623;46020;-65
2022/01/05 10:23:48;;;;;;;18.10;11.75;;;;;;;;;;143743;613;46020;-65
2022/01/05 10:26:40;;;;;;;19.92;12.10;;;;;;;;;;143739;624;47022;-66
2022/01/05 10:29:18;;;;;;;21.70;12.20;;;;;;;;;;143740;592;46020;-65
2022/01/05 10:31:53;;;;;;;27.08;14.48;;;;;;;;;;143740;574;46021;-64
2022/01/05 10:34:25;;;;;;;18.20;12.07;;;;;;;;;;143742;618;46020;-65
2022/01/05 10:36:57;;;;;;;22.60;12.50;;;;;;;;;;143741;610;46050;-65
2022/01/05 10:39:42;;;;;;;23.35;14.80;;;;;;;;;;143738;583;46918;-65
2022/01/05 10:42:14;;;;;;;29.58;17.05;;;;;;;;;;143738;684;46048;-65
2022/01/05 10:44:43;;;;;;;27.25;14.20;;;;;;;;;;143737;623;46020;-65
2022/01/05 10:47:15;;;;;;;23.60;14.10;;;;;;;;;;143741;594;46038;-65
2022/01/05 10:49:42;;;;;;;22.30;13.35;;;;;;;;;;143740;564;46020;-64
2022/01/05 10:52:24;;;;;;;22.42;15.43;;;;;;;;;;143737;643;46037;-65
2022/01/05 10:54:52;;;;;;;19.15;13.90;;;;;;;;;;143742;587;46021;-63
2022/01/05 10:57:19;;;;;;;19.05;12.55;;;;;;;;;;143741;600;46022;-63
2022/01/05 10:59:48;;;;;;;14.40;10.65;;;;;;;;;;143740;564;46020;-63
2022/01/05 11:02:30;;;;;;;12.00;9.30;;;;;;;;;;143738;575;46021;-62
2022/01/05 11:05:13;;;;;;;15.23;10.10;;;;;;;;;;143743;626;46020;-62
2022/01/05 11:07:46;;;;;;;12.85;9.38;;;;;;;;;;143742;605;46022;-63
2022/01/05 11:10:17;;;;;;;15.10;9.15;;;;;;;;;;143740;609;46020;-62
2022/01/05 11:12:54;;;;;;;16.08;9.85;;;;;;;;;;143740;716;46020;-62
2022/01/05 11:15:34;;;;;;;15.60;9.43;;;;;;;;;;143742;669;46020;-62
2022/01/05 11:18:18;;;;;;;13.40;9.18;;;;;;;;;;143736;636;47029;-63
2022/01/05 11:20:55;;;;;;;14.68;9.13;;;;;;;;;;143740;580;46020;-63
2022/01/05 11:23:26;;;;;;;13.48;7.78;;;;;;;;;;143741;564;46020;-63
2022/01/05 11:25:55;;;;;;;21.62;14.65;;;;;;;;;;143741;587;46020;-64
2022/01/05 11:28:25;;;;;;;25.37;16.73;;;;;;;;;;143743;585;46022;-63
2022/01/05 11:30:54;;;;;;;25.55;17.10;;;;;;;;;;143740;603;46021;-63
2022/01/05 11:33:22;;;;;;;28.12;18.40;;;;;;;;;;143738;577;46020;-63
2022/01/05 11:35:50;;;;;;;25.25;14.63;;;;;;;;;;143743;634;46020;-63
2022/01/05 11:38:17;;;;;;;14.70;10.50;;;;;;;;;;143741;570;46048;-63
2022/01/05 11:40:55;;;;;;;14.63;10.88;;;;;;;;;;143740;616;46020;-64
2022/01/05 11:43:26;;;;;;;16.50;9.38;;;;;;;;;;143739;563;46020;-63
2022/01/05 11:45:53;;;;;;;19.35;11.00;;;;;;;;;;143742;581;46021;-64
2022/01/05 11:48:28;;;;;;;16.98;10.88;;;;;;;;;;143741;640;46022;-64
2022/01/05 11:51:00;;;;;;;18.02;10.10;;;;;;;;;;143740;604;46027;-63
2022/01/05 11:53:45;;;;;;;17.27;11.02;;;;;;;;;;143739;605;46021;-64
2022/01/05 11:56:20;;;;;;;16.95;11.10;;;;;;;;;;143741;677;46020;-64
2022/01/05 11:59:01;;;;;;;18.80;10.70;;;;;;;;;;143743;565;46022;-63
2022/01/05 12:01:36;;;;;;;15.68;11.20;;;;;;;;;;143739;569;46918;-63
2022/01/05 12:04:09;;;;;;;16.80;11.57;;;;;;;;;;143737;569;46020;-63
2022/01/05 12:07:03;;;;;;;21.75;11.43;;;;;;;;;;143740;666;46020;-63
2022/01/05 12:09:33;;;;;;;20.67;11.52;;;;;;;;;;143741;654;46023;-63
2022/01/05 12:12:20;;;;;;;14.70;10.80;;;;;;;;;;143739;571;46020;-63
2022/01/05 12:14:48;;;;;;;17.98;10.10;;;;;;;;;;143739;640;46021;-62
2022/01/05 12:17:18;;;;;;;18.60;11.20;;;;;;;;;;143741;591;46020;-63
2022/01/05 12:20:05;;;;;;;17.87;11.65;;;;;;;;;;143740;561;46022;-63
2022/01/05 12:22:32;;;;;;;16.92;11.02;;;;;;;;;;143740;623;46011;-63
2022/01/05 12:25:09;;;;;;;17.17;10.40;;;;;;;;;;143740;595;46020;-64
2022/01/05 12:27:58;;;;;;;16.05;8.68;;;;;;;;;;143742;584;46020;-63
2022/01/05 12:30:33;;;;;;;12.73;8.75;;;;;;;;;;143741;605;46046;-63
2022/01/05 12:33:15;;;;;;;12.98;8.00;;;;;;;;;;143739;592;46020;-63
2022/01/05 12:35:51;;;;;;;12.90;7.57;;;;;;;;;;143742;611;46020;-63
2022/01/05 12:38:46;;;;;;;10.98;8.63;;;;;;;;;;143739;613;46021;-63
2022/01/05 12:41:55;;;;;;;10.55;7.93;;;;;;;;;;143741;577;46022;-63
2022/01/05 12:44:33;;;;;;;10.15;7.37;;;;;;;;;;143740;628;46020;-63
2022/01/05 12:47:00;;;;;;;13.95;7.70;;;;;;;;;;143737;574;46044;-62
2022/01/05 12:49:37;;;;;;;11.12;7.55;;;;;;;;;;143741;564;46022;-64
2022/01/05 12:52:14;;;;;;;15.63;7.65;;;;;;;;;;143739;660;47019;-63
2022/01/05 12:54:44;;;;;;;10.73;7.80;;;;;;;;;;143739;640;46012;-63
2022/01/05 12:57:17;;;;;;;14.63;8.48;;;;;;;;;;143737;724;46018;-63
2022/01/05 12:59:49;;;;;;;10.80;7.80;;;;;;;;;;143744;794;46022;-62
2022/01/05 13:02:27;;;;;;;14.52;7.03;;;;;;;;;;143740;672;46021;-63
2022/01/05 13:04:56;;;;;;;12.15;7.85;;;;;;;;;;143740;700;46012;-62
2022/01/05 13:07:23;;;;;;;9.80;8.07;;;;;;;;;;143740;569;46018;-62
2022/01/05 13:09:55;;;;;;;11.63;7.55;;;;;;;;;;143742;710;46023;-63
2022/01/05 13:12:26;;;;;;;11.77;7.97;;;;;;;;;;143742;645;46020;-63
2022/01/05 13:15:00;;;;;;;12.45;7.60;;;;;;;;;;143740;673;46023;-63
2022/01/05 13:17:35;;;;;;;12.00;8.40;;;;;;;;;;143737;608;46026;-63
2022/01/05 13:20:08;;;;;;;;;;;;;;;;;;143744;976;46022;-64
2022/01/05 13:22:44;;;;;;;12.93;7.57;;;;;;;;;;143746;737;46048;-62
2022/01/05 13:25:22;;;;;;;12.27;7.82;;;;;;;;;;143738;835;46022;-63
2022/01/05 13:27:51;;;;;;;11.73;8.32;;;;;;;;;;143741;707;46018;-63
2022/01/05 13:30:24;;;;;;;14.13;9.07;;;;;;;;;;143741;564;46023;-63
2022/01/05 13:32:59;;;;;;;14.18;8.05;;;;;;;;;;143742;809;46020;-63
2022/01/05 13:35:37;;;;;;;14.02;7.75;;;;;;;;;;143740;621;46022;-63
2022/01/05 13:38:06;;;;;;;11.73;7.78;;;;;;;;;;143725;624;46019;-63
2022/01/05 13:40:35;;;;;;;13.40;8.18;;;;;;;;;;143741;677;46022;-63
2022/01/05 13:43:06;;;;;;;16.70;8.55;;;;;;;;;;143741;579;46020;-63
2022/01/05 13:45:36;;;;;;;16.17;7.62;;;;;;;;;;143739;602;46022;-63
2022/01/05 13:48:31;;;;;;;13.88;7.85;;;;;;;;;;143741;564;46018;-63
2022/01/05 13:51:00;;;;;;;11.48;6.82;;;;;;;;;;143740;578;46024;-63
2022/01/05 13:53:32;;;;;;;9.63;7.15;;;;;;;;;;143740;670;46043;-63
2022/01/05 13:56:15;;;;;;;16.33;7.43;;;;;;;;;;143740;566;46022;-62
2022/01/05 13:58:45;;;;;;;11.98;7.62;;;;;;;;;;143740;571;46018;-62
2022/01/05 14:01:18;;;;;;;15.32;8.57;;;;;;;;;;143743;606;46023;-62
2022/01/05 14:03:51;;;;;;;12.85;8.77;;;;;;;;;;143743;594;46020;-63
2022/01/05 14:06:26;;;;;;;14.98;9.02;;;;;;;;;;143738;607;46023;-63
2022/01/05 14:08:57;;;;;;;13.82;8.93;;;;;;;;;;143740;581;46018;-63
2022/01/05 14:11:26;;;;;;;14.32;8.23;;;;;;;;;;143741;577;46022;-63
2022/01/05 14:14:06;;;;;;;16.40;8.52;;;;;;;;;;143743;605;46020;-63
2022/01/05 14:16:51;;;;;;;16.02;9.15;;;;;;;;;;143740;611;46023;-63
2022/01/05 14:19:34;;;;;;;15.05;7.75;;;;;;;;;;143741;563;46020;-63
2022/01/05 14:22:08;;;;;;;12.35;8.68;;;;;;;;;;143742;606;46022;-63
2022/01/05 14:24:38;;;;;;;10.65;7.78;;;;;;;;;;143737;637;47020;-63
2022/01/05 14:27:06;;;;;;;12.70;8.27;;;;;;;;;;143739;569;46022;-62
2022/01/05 14:29:33;;;;;;;15.27;7.28;;;;;;;;;;143739;618;46018;-63
2022/01/05 14:32:06;;;;;;;14.93;7.72;;;;;;;;;;143740;606;46022;-63
2022/01/05 14:34:39;;;;;;;12.02;7.47;;;;;;;;;;143741;585;46020;-63
2022/01/05 14:37:09;;;;;;;13.25;7.85;;;;;;;;;;143739;608;46023;-63
2022/01/05 14:39:41;;;;;;;12.15;8.25;;;;;;;;;;143740;594;46018;-62
2022/01/05 14:42:14;;;;;;;11.60;7.50;;;;;;;;;;143743;574;46022;-63